ムンバイ の空港の天気 - METARとTAF

チャットラパティー・シヴァージー国際空港 ( VABB / BOM ) - インド ムンバイ
飛行場実況気象(Metar)
観測時間10/20 08:00 IST (10/20 02:30 UTC)
風向・風速東南東 2m/s
視程1700m
天気現象煙霧
少しの雲 雲底高度 610m
全天の4割程度の雲 雲底高度 3050m
気温27℃
湿度79%
気圧1008hPa
METARVABB 200230Z 12004KT 1700 HZ FEW020 SCT100 27/23 Q1008 BECMG 2000 HZ
過去の天気等 Google飛行場航空写真 Wunderground天気予報

過去48時間のMETAR

飛行場予報(TAF)
発表時間: 10/20 04:30 IST (10/19 23:00 UTC)
予報対象時間: 20日5時 IST ~ 21日11時 IST
風向・風速不定 2m/s
視程2,000m
天気現象もや 煙霧
全天の4割程度の雲 雲底高度 610m
全天の4割程度の雲 雲底高度 3,050m
20日7時 IST ~ 20日9時 IST に徐々に
風向・風速東南東 2m/s
20日11時 IST ~ 20日13時 IST に徐々に
風向・風速西北西 4m/s
視程3,000m
天気現象煙霧
20日18時 IST ~ 20日20時 IST に徐々に
風向・風速北北西 3m/s
20日23時 IST ~ 21日1時 IST に徐々に
風向・風速不定 2m/s
視程2,000m
天気現象もや 煙霧
21日8時 IST ~ 21日10時 IST に徐々に
風向・風速東南東 3m/s
視程3,000m
天気現象煙霧
TAF VABB 192300Z 2000/2106 VRB03KT 2000 BR HZ SCT020 SCT100
BECMG 2002/2004 11004KT
BECMG 2006/2008 29008KT 3000 HZ
BECMG 2013/2015 34006KT
BECMG 2018/2020 VRB03KT 2000 BR HZ
BECMG 2103/2105 12005KT 3000 HZ